sensor_id;sensor_type;location;lat;lon;timestamp;P1;durP1;ratioP1;P2;durP2;ratioP2
8803;SDS011;4438;50.890;4.726;2023-03-20T00:00:01;9.63;;;7.70;;
8803;SDS011;4438;50.890;4.726;2023-03-20T00:02:28;11.00;;;7.20;;
8803;SDS011;4438;50.890;4.726;2023-03-20T00:04:54;9.37;;;7.37;;
8803;SDS011;4438;50.890;4.726;2023-03-20T00:07:20;9.03;;;7.33;;
8803;SDS011;4438;50.890;4.726;2023-03-20T00:09:46;9.67;;;7.10;;
8803;SDS011;4438;50.890;4.726;2023-03-20T00:12:14;11.07;;;8.23;;
8803;SDS011;4438;50.890;4.726;2023-03-20T00:14:41;9.53;;;7.47;;
8803;SDS011;4438;50.890;4.726;2023-03-20T00:17:10;9.80;;;8.13;;
8803;SDS011;4438;50.890;4.726;2023-03-20T00:19:42;9.60;;;8.03;;
8803;SDS011;4438;50.890;4.726;2023-03-20T00:22:08;8.83;;;7.83;;
8803;SDS011;4438;50.890;4.726;2023-03-20T00:24:34;11.17;;;8.20;;
8803;SDS011;4438;50.890;4.726;2023-03-20T00:27:00;8.47;;;7.57;;
8803;SDS011;4438;50.890;4.726;2023-03-20T00:29:27;10.83;;;8.00;;
8803;SDS011;4438;50.890;4.726;2023-03-20T00:31:55;9.20;;;7.50;;
8803;SDS011;4438;50.890;4.726;2023-03-20T00:34:22;10.33;;;7.93;;
8803;SDS011;4438;50.890;4.726;2023-03-20T00:36:50;8.70;;;7.70;;
8803;SDS011;4438;50.890;4.726;2023-03-20T00:39:16;11.90;;;8.07;;
8803;SDS011;4438;50.890;4.726;2023-03-20T00:46:54;9.07;;;7.47;;
8803;SDS011;4438;50.890;4.726;2023-03-20T00:49:22;10.23;;;7.77;;
8803;SDS011;4438;50.890;4.726;2023-03-20T00:51:49;9.03;;;7.00;;
8803;SDS011;4438;50.890;4.726;2023-03-20T00:54:16;8.17;;;7.37;;
8803;SDS011;4438;50.890;4.726;2023-03-20T00:56:58;13.37;;;8.67;;
8803;SDS011;4438;50.890;4.726;2023-03-20T00:59:26;9.30;;;7.20;;
8803;SDS011;4438;50.890;4.726;2023-03-20T01:01:53;9.37;;;7.90;;
8803;SDS011;4438;50.890;4.726;2023-03-20T01:04:19;10.37;;;8.17;;
8803;SDS011;4438;50.890;4.726;2023-03-20T01:06:45;9.70;;;8.10;;
8803;SDS011;4438;50.890;4.726;2023-03-20T01:09:12;10.83;;;8.10;;
8803;SDS011;4438;50.890;4.726;2023-03-20T01:11:38;11.57;;;8.23;;
8803;SDS011;4438;50.890;4.726;2023-03-20T01:14:04;10.50;;;8.47;;
8803;SDS011;4438;50.890;4.726;2023-03-20T01:16:31;9.63;;;7.47;;
8803;SDS011;4438;50.890;4.726;2023-03-20T01:18:57;9.47;;;8.40;;
8803;SDS011;4438;50.890;4.726;2023-03-20T01:21:23;10.30;;;8.43;;
8803;SDS011;4438;50.890;4.726;2023-03-20T01:23:50;10.70;;;8.40;;
8803;SDS011;4438;50.890;4.726;2023-03-20T01:28:54;10.77;;;8.90;;
8803;SDS011;4438;50.890;4.726;2023-03-20T01:31:20;12.43;;;9.37;;
8803;SDS011;4438;50.890;4.726;2023-03-20T01:33:46;9.47;;;8.07;;
8803;SDS011;4438;50.890;4.726;2023-03-20T01:36:13;10.70;;;8.23;;
8803;SDS011;4438;50.890;4.726;2023-03-20T01:38:40;9.73;;;7.70;;
8803;SDS011;4438;50.890;4.726;2023-03-20T01:41:07;9.17;;;7.90;;
8803;SDS011;4438;50.890;4.726;2023-03-20T01:43:35;10.63;;;8.60;;
8803;SDS011;4438;50.890;4.726;2023-03-20T01:51:19;12.33;;;8.00;;
8803;SDS011;4438;50.890;4.726;2023-03-20T01:53:48;11.30;;;8.23;;
8803;SDS011;4438;50.890;4.726;2023-03-20T01:56:16;9.97;;;7.40;;
8803;SDS011;4438;50.890;4.726;2023-03-20T01:58:43;10.50;;;7.93;;
8803;SDS011;4438;50.890;4.726;2023-03-20T02:01:12;8.63;;;7.73;;
8803;SDS011;4438;50.890;4.726;2023-03-20T02:03:43;12.90;;;8.17;;
8803;SDS011;4438;50.890;4.726;2023-03-20T02:06:10;10.97;;;8.37;;
8803;SDS011;4438;50.890;4.726;2023-03-20T02:08:41;10.07;;;8.20;;
8803;SDS011;4438;50.890;4.726;2023-03-20T02:11:08;10.10;;;8.60;;
8803;SDS011;4438;50.890;4.726;2023-03-20T02:13:35;11.43;;;8.90;;
8803;SDS011;4438;50.890;4.726;2023-03-20T02:16:06;12.80;;;9.33;;
8803;SDS011;4438;50.890;4.726;2023-03-20T02:18:32;10.83;;;8.47;;
8803;SDS011;4438;50.890;4.726;2023-03-20T02:42:22;12.53;;;10.17;;
8803;SDS011;4438;50.890;4.726;2023-03-20T02:47:39;14.40;;;10.70;;
8803;SDS011;4438;50.890;4.726;2023-03-20T02:57:40;16.87;;;11.73;;
8803;SDS011;4438;50.890;4.726;2023-03-20T03:00:09;15.40;;;11.70;;
8803;SDS011;4438;50.890;4.726;2023-03-20T03:02:42;14.20;;;11.67;;
8803;SDS011;4438;50.890;4.726;2023-03-20T03:05:17;17.07;;;12.20;;
8803;SDS011;4438;50.890;4.726;2023-03-20T03:07:44;16.23;;;11.87;;
8803;SDS011;4438;50.890;4.726;2023-03-20T03:10:16;18.80;;;12.10;;
8803;SDS011;4438;50.890;4.726;2023-03-20T03:12:44;17.30;;;11.57;;
8803;SDS011;4438;50.890;4.726;2023-03-20T03:15:13;14.43;;;11.20;;
8803;SDS011;4438;50.890;4.726;2023-03-20T03:17:41;19.83;;;11.90;;
8803;SDS011;4438;50.890;4.726;2023-03-20T03:20:43;16.93;;;11.83;;
8803;SDS011;4438;50.890;4.726;2023-03-20T03:23:02;18.90;;;11.67;;
8803;SDS011;4438;50.890;4.726;2023-03-20T03:25:29;20.70;;;13.07;;
8803;SDS011;4438;50.890;4.726;2023-03-20T03:28:03;16.23;;;11.83;;
8803;SDS011;4438;50.890;4.726;2023-03-20T03:30:31;16.83;;;11.87;;
8803;SDS011;4438;50.890;4.726;2023-03-20T03:35:36;17.73;;;11.87;;
8803;SDS011;4438;50.890;4.726;2023-03-20T03:38:11;19.40;;;12.60;;
8803;SDS011;4438;50.890;4.726;2023-03-20T03:40:44;18.23;;;12.60;;
8803;SDS011;4438;50.890;4.726;2023-03-20T03:43:16;19.17;;;12.37;;
8803;SDS011;4438;50.890;4.726;2023-03-20T03:48:32;17.07;;;12.77;;
8803;SDS011;4438;50.890;4.726;2023-03-20T03:51:10;19.23;;;12.40;;
8803;SDS011;4438;50.890;4.726;2023-03-20T03:53:43;18.30;;;12.53;;
8803;SDS011;4438;50.890;4.726;2023-03-20T03:56:13;19.33;;;12.93;;
8803;SDS011;4438;50.890;4.726;2023-03-20T04:01:07;18.47;;;13.57;;
8803;SDS011;4438;50.890;4.726;2023-03-20T04:03:41;20.17;;;13.93;;
8803;SDS011;4438;50.890;4.726;2023-03-20T04:06:09;23.23;;;13.80;;
8803;SDS011;4438;50.890;4.726;2023-03-20T04:08:38;22.47;;;13.80;;
8803;SDS011;4438;50.890;4.726;2023-03-20T04:11:05;22.07;;;13.63;;
8803;SDS011;4438;50.890;4.726;2023-03-20T04:13:31;17.70;;;12.43;;
8803;SDS011;4438;50.890;4.726;2023-03-20T04:15:57;23.83;;;14.50;;
8803;SDS011;4438;50.890;4.726;2023-03-20T04:18:23;18.17;;;13.70;;
8803;SDS011;4438;50.890;4.726;2023-03-20T04:20:50;19.27;;;12.77;;
8803;SDS011;4438;50.890;4.726;2023-03-20T04:23:16;20.33;;;13.40;;
8803;SDS011;4438;50.890;4.726;2023-03-20T04:25:42;19.90;;;13.80;;
8803;SDS011;4438;50.890;4.726;2023-03-20T04:28:08;20.73;;;13.43;;
8803;SDS011;4438;50.890;4.726;2023-03-20T04:30:35;22.03;;;13.50;;
8803;SDS011;4438;50.890;4.726;2023-03-20T04:33:01;21.17;;;13.00;;
8803;SDS011;4438;50.890;4.726;2023-03-20T04:35:28;21.50;;;13.77;;
8803;SDS011;4438;50.890;4.726;2023-03-20T04:37:54;18.93;;;13.67;;
8803;SDS011;4438;50.890;4.726;2023-03-20T04:40:20;19.53;;;12.83;;
8803;SDS011;4438;50.890;4.726;2023-03-20T04:42:46;19.33;;;13.53;;
8803;SDS011;4438;50.890;4.726;2023-03-20T04:45:12;17.77;;;12.23;;
8803;SDS011;4438;50.890;4.726;2023-03-20T04:47:38;15.17;;;11.90;;
8803;SDS011;4438;50.890;4.726;2023-03-20T04:50:05;20.53;;;13.30;;
8803;SDS011;4438;50.890;4.726;2023-03-20T04:52:31;19.70;;;13.43;;
8803;SDS011;4438;50.890;4.726;2023-03-20T04:54:57;20.87;;;14.30;;
8803;SDS011;4438;50.890;4.726;2023-03-20T04:57:23;17.83;;;12.27;;
8803;SDS011;4438;50.890;4.726;2023-03-20T04:59:50;18.67;;;12.47;;
8803;SDS011;4438;50.890;4.726;2023-03-20T05:02:16;20.20;;;13.03;;
8803;SDS011;4438;50.890;4.726;2023-03-20T05:04:42;18.87;;;13.03;;
8803;SDS011;4438;50.890;4.726;2023-03-20T05:07:08;19.40;;;11.87;;
8803;SDS011;4438;50.890;4.726;2023-03-20T05:09:35;19.30;;;12.67;;
8803;SDS011;4438;50.890;4.726;2023-03-20T05:12:01;19.87;;;12.73;;
8803;SDS011;4438;50.890;4.726;2023-03-20T05:14:27;17.10;;;11.50;;
8803;SDS011;4438;50.890;4.726;2023-03-20T05:16:53;19.27;;;12.43;;
8803;SDS011;4438;50.890;4.726;2023-03-20T05:19:20;18.23;;;12.70;;
8803;SDS011;4438;50.890;4.726;2023-03-20T05:21:46;20.27;;;12.37;;
8803;SDS011;4438;50.890;4.726;2023-03-20T05:24:12;18.57;;;12.77;;
8803;SDS011;4438;50.890;4.726;2023-03-20T05:26:38;20.70;;;12.30;;
8803;SDS011;4438;50.890;4.726;2023-03-20T05:29:04;20.80;;;12.73;;
8803;SDS011;4438;50.890;4.726;2023-03-20T05:31:30;20.27;;;12.30;;
8803;SDS011;4438;50.890;4.726;2023-03-20T05:33:56;22.00;;;12.87;;
8803;SDS011;4438;50.890;4.726;2023-03-20T05:36:22;17.83;;;12.20;;
8803;SDS011;4438;50.890;4.726;2023-03-20T05:38:48;20.20;;;12.07;;
8803;SDS011;4438;50.890;4.726;2023-03-20T05:41:14;16.80;;;11.03;;
8803;SDS011;4438;50.890;4.726;2023-03-20T05:43:41;21.97;;;12.67;;
8803;SDS011;4438;50.890;4.726;2023-03-20T05:46:07;19.83;;;12.07;;
8803;SDS011;4438;50.890;4.726;2023-03-20T05:48:33;17.30;;;12.30;;
8803;SDS011;4438;50.890;4.726;2023-03-20T05:50:59;18.90;;;11.77;;
8803;SDS011;4438;50.890;4.726;2023-03-20T05:53:25;20.80;;;11.93;;
8803;SDS011;4438;50.890;4.726;2023-03-20T05:55:51;19.53;;;11.07;;
8803;SDS011;4438;50.890;4.726;2023-03-20T05:58:17;18.90;;;11.70;;
8803;SDS011;4438;50.890;4.726;2023-03-20T06:00:43;20.93;;;10.40;;
8803;SDS011;4438;50.890;4.726;2023-03-20T06:03:10;18.83;;;11.50;;
8803;SDS011;4438;50.890;4.726;2023-03-20T06:05:36;15.30;;;10.67;;
8803;SDS011;4438;50.890;4.726;2023-03-20T06:08:02;19.40;;;11.50;;
8803;SDS011;4438;50.890;4.726;2023-03-20T06:10:29;18.40;;;10.43;;
8803;SDS011;4438;50.890;4.726;2023-03-20T06:12:55;17.70;;;11.10;;
8803;SDS011;4438;50.890;4.726;2023-03-20T06:15:22;17.83;;;10.33;;
8803;SDS011;4438;50.890;4.726;2023-03-20T06:17:48;17.50;;;10.30;;
8803;SDS011;4438;50.890;4.726;2023-03-20T06:20:14;19.27;;;9.87;;
8803;SDS011;4438;50.890;4.726;2023-03-20T06:22:40;17.37;;;10.23;;
8803;SDS011;4438;50.890;4.726;2023-03-20T06:25:06;18.07;;;9.97;;
8803;SDS011;4438;50.890;4.726;2023-03-20T06:27:33;18.40;;;9.83;;
8803;SDS011;4438;50.890;4.726;2023-03-20T06:29:59;16.70;;;9.70;;
8803;SDS011;4438;50.890;4.726;2023-03-20T06:32:25;16.37;;;10.37;;
8803;SDS011;4438;50.890;4.726;2023-03-20T06:34:51;14.50;;;8.83;;
8803;SDS011;4438;50.890;4.726;2023-03-20T06:37:18;14.20;;;9.03;;
8803;SDS011;4438;50.890;4.726;2023-03-20T06:39:45;19.07;;;8.97;;
8803;SDS011;4438;50.890;4.726;2023-03-20T06:42:11;17.97;;;9.10;;
8803;SDS011;4438;50.890;4.726;2023-03-20T06:44:37;20.00;;;9.77;;
8803;SDS011;4438;50.890;4.726;2023-03-20T06:47:04;17.40;;;10.23;;
8803;SDS011;4438;50.890;4.726;2023-03-20T06:49:30;17.90;;;9.20;;
8803;SDS011;4438;50.890;4.726;2023-03-20T06:51:56;19.33;;;10.00;;
8803;SDS011;4438;50.890;4.726;2023-03-20T06:54:23;15.97;;;9.50;;
8803;SDS011;4438;50.890;4.726;2023-03-20T06:56:50;19.63;;;10.17;;
8803;SDS011;4438;50.890;4.726;2023-03-20T06:59:16;15.93;;;9.70;;
8803;SDS011;4438;50.890;4.726;2023-03-20T07:01:42;16.83;;;9.47;;
8803;SDS011;4438;50.890;4.726;2023-03-20T07:04:09;18.07;;;8.27;;
8803;SDS011;4438;50.890;4.726;2023-03-20T07:06:36;15.13;;;7.53;;
8803;SDS011;4438;50.890;4.726;2023-03-20T07:09:02;14.07;;;7.67;;
8803;SDS011;4438;50.890;4.726;2023-03-20T07:11:29;13.47;;;7.07;;
8803;SDS011;4438;50.890;4.726;2023-03-20T07:13:55;14.70;;;7.30;;
8803;SDS011;4438;50.890;4.726;2023-03-20T07:16:23;14.80;;;7.40;;
8803;SDS011;4438;50.890;4.726;2023-03-20T07:18:49;14.07;;;6.97;;
8803;SDS011;4438;50.890;4.726;2023-03-20T07:21:16;12.90;;;7.10;;
8803;SDS011;4438;50.890;4.726;2023-03-20T07:23:43;16.33;;;7.37;;
8803;SDS011;4438;50.890;4.726;2023-03-20T07:26:09;13.27;;;6.80;;
8803;SDS011;4438;50.890;4.726;2023-03-20T07:28:36;13.63;;;6.87;;
8803;SDS011;4438;50.890;4.726;2023-03-20T07:31:02;12.93;;;7.23;;
8803;SDS011;4438;50.890;4.726;2023-03-20T07:33:28;12.77;;;6.70;;
8803;SDS011;4438;50.890;4.726;2023-03-20T07:35:54;11.20;;;7.07;;
8803;SDS011;4438;50.890;4.726;2023-03-20T07:38:20;14.27;;;6.70;;
8803;SDS011;4438;50.890;4.726;2023-03-20T07:40:47;11.80;;;6.57;;
8803;SDS011;4438;50.890;4.726;2023-03-20T07:43:14;12.50;;;6.73;;
8803;SDS011;4438;50.890;4.726;2023-03-20T07:45:40;11.60;;;6.43;;
8803;SDS011;4438;50.890;4.726;2023-03-20T07:48:06;13.47;;;6.50;;
8803;SDS011;4438;50.890;4.726;2023-03-20T07:50:32;13.83;;;6.87;;
8803;SDS011;4438;50.890;4.726;2023-03-20T07:52:58;11.50;;;6.13;;
8803;SDS011;4438;50.890;4.726;2023-03-20T07:55:25;12.33;;;5.93;;
8803;SDS011;4438;50.890;4.726;2023-03-20T07:57:51;11.30;;;6.17;;
8803;SDS011;4438;50.890;4.726;2023-03-20T08:00:17;13.27;;;6.67;;
8803;SDS011;4438;50.890;4.726;2023-03-20T08:02:43;12.50;;;6.00;;
8803;SDS011;4438;50.890;4.726;2023-03-20T08:05:10;13.73;;;6.03;;
8803;SDS011;4438;50.890;4.726;2023-03-20T08:07:36;10.07;;;5.87;;
8803;SDS011;4438;50.890;4.726;2023-03-20T08:10:02;12.50;;;5.73;;
8803;SDS011;4438;50.890;4.726;2023-03-20T08:12:28;11.30;;;6.13;;
8803;SDS011;4438;50.890;4.726;2023-03-20T08:14:55;9.33;;;5.27;;
8803;SDS011;4438;50.890;4.726;2023-03-20T08:17:21;12.83;;;6.13;;
8803;SDS011;4438;50.890;4.726;2023-03-20T08:19:47;11.27;;;5.70;;
8803;SDS011;4438;50.890;4.726;2023-03-20T08:22:13;14.80;;;6.00;;
8803;SDS011;4438;50.890;4.726;2023-03-20T08:24:39;12.43;;;5.57;;
8803;SDS011;4438;50.890;4.726;2023-03-20T08:27:05;10.30;;;5.33;;
8803;SDS011;4438;50.890;4.726;2023-03-20T08:29:31;13.50;;;5.37;;
8803;SDS011;4438;50.890;4.726;2023-03-20T08:31:57;7.80;;;4.73;;
8803;SDS011;4438;50.890;4.726;2023-03-20T08:34:24;11.57;;;5.17;;
8803;SDS011;4438;50.890;4.726;2023-03-20T08:36:50;9.00;;;5.33;;
8803;SDS011;4438;50.890;4.726;2023-03-20T08:39:16;10.17;;;5.53;;
8803;SDS011;4438;50.890;4.726;2023-03-20T08:41:43;12.47;;;5.70;;
8803;SDS011;4438;50.890;4.726;2023-03-20T08:44:10;11.97;;;5.90;;
8803;SDS011;4438;50.890;4.726;2023-03-20T08:46:36;9.70;;;5.47;;
8803;SDS011;4438;50.890;4.726;2023-03-20T08:49:04;13.17;;;5.63;;
8803;SDS011;4438;50.890;4.726;2023-03-20T08:51:30;12.00;;;5.33;;
8803;SDS011;4438;50.890;4.726;2023-03-20T08:53:56;13.00;;;5.63;;
8803;SDS011;4438;50.890;4.726;2023-03-20T08:56:22;11.83;;;5.57;;
8803;SDS011;4438;50.890;4.726;2023-03-20T08:58:48;11.47;;;5.03;;
8803;SDS011;4438;50.890;4.726;2023-03-20T09:01:17;12.63;;;5.60;;
8803;SDS011;4438;50.890;4.726;2023-03-20T09:03:43;10.40;;;5.67;;
8803;SDS011;4438;50.890;4.726;2023-03-20T09:06:09;14.40;;;5.67;;
8803;SDS011;4438;50.890;4.726;2023-03-20T09:08:35;12.03;;;5.53;;
8803;SDS011;4438;50.890;4.726;2023-03-20T09:11:02;14.27;;;5.50;;
8803;SDS011;4438;50.890;4.726;2023-03-20T09:13:28;13.20;;;5.57;;
8803;SDS011;4438;50.890;4.726;2023-03-20T09:15:54;11.23;;;4.70;;
8803;SDS011;4438;50.890;4.726;2023-03-20T09:18:21;12.57;;;4.90;;
8803;SDS011;4438;50.890;4.726;2023-03-20T09:20:47;9.17;;;4.77;;
8803;SDS011;4438;50.890;4.726;2023-03-20T09:23:13;7.83;;;4.30;;
8803;SDS011;4438;50.890;4.726;2023-03-20T09:25:39;9.33;;;5.30;;
8803;SDS011;4438;50.890;4.726;2023-03-20T09:28:05;9.67;;;4.97;;
8803;SDS011;4438;50.890;4.726;2023-03-20T09:30:32;8.13;;;4.60;;
8803;SDS011;4438;50.890;4.726;2023-03-20T09:32:58;14.73;;;5.27;;
8803;SDS011;4438;50.890;4.726;2023-03-20T09:35:24;11.60;;;4.87;;
8803;SDS011;4438;50.890;4.726;2023-03-20T09:37:50;8.43;;;4.33;;
8803;SDS011;4438;50.890;4.726;2023-03-20T09:40:21;8.37;;;4.57;;
8803;SDS011;4438;50.890;4.726;2023-03-20T09:45:50;13.40;;;4.60;;
8803;SDS011;4438;50.890;4.726;2023-03-20T09:51:04;10.70;;;4.93;;
8803;SDS011;4438;50.890;4.726;2023-03-20T09:53:46;10.50;;;4.90;;
8803;SDS011;4438;50.890;4.726;2023-03-20T09:56:16;10.53;;;4.47;;
8803;SDS011;4438;50.890;4.726;2023-03-20T09:58:42;8.83;;;5.00;;
8803;SDS011;4438;50.890;4.726;2023-03-20T10:01:12;10.60;;;4.97;;
8803;SDS011;4438;50.890;4.726;2023-03-20T10:06:08;12.50;;;5.13;;
8803;SDS011;4438;50.890;4.726;2023-03-20T10:08:37;11.30;;;4.83;;
8803;SDS011;4438;50.890;4.726;2023-03-20T10:11:49;10.20;;;5.27;;
8803;SDS011;4438;50.890;4.726;2023-03-20T10:21:43;11.03;;;5.53;;
8803;SDS011;4438;50.890;4.726;2023-03-20T10:24:13;11.67;;;5.47;;
8803;SDS011;4438;50.890;4.726;2023-03-20T10:26:43;8.37;;;4.97;;
8803;SDS011;4438;50.890;4.726;2023-03-20T10:29:18;8.83;;;5.23;;
8803;SDS011;4438;50.890;4.726;2023-03-20T10:31:55;12.10;;;5.00;;
8803;SDS011;4438;50.890;4.726;2023-03-20T10:39:43;12.43;;;4.90;;
8803;SDS011;4438;50.890;4.726;2023-03-20T10:42:21;10.57;;;4.60;;
8803;SDS011;4438;50.890;4.726;2023-03-20T10:45:03;9.50;;;5.30;;
8803;SDS011;4438;50.890;4.726;2023-03-20T10:47:32;9.47;;;4.70;;
8803;SDS011;4438;50.890;4.726;2023-03-20T10:50:00;10.70;;;4.67;;
8803;SDS011;4438;50.890;4.726;2023-03-20T10:52:29;10.67;;;4.70;;
8803;SDS011;4438;50.890;4.726;2023-03-20T10:54:57;10.30;;;4.30;;
8803;SDS011;4438;50.890;4.726;2023-03-20T10:57:26;9.77;;;4.73;;
8803;SDS011;4438;50.890;4.726;2023-03-20T10:59:56;7.93;;;4.07;;
8803;SDS011;4438;50.890;4.726;2023-03-20T11:02:24;9.93;;;4.60;;
8803;SDS011;4438;50.890;4.726;2023-03-20T11:04:52;8.10;;;4.20;;
8803;SDS011;4438;50.890;4.726;2023-03-20T11:07:21;9.63;;;5.27;;
8803;SDS011;4438;50.890;4.726;2023-03-20T11:10:05;7.90;;;4.20;;
8803;SDS011;4438;50.890;4.726;2023-03-20T11:12:36;8.37;;;4.83;;
8803;SDS011;4438;50.890;4.726;2023-03-20T11:15:04;8.53;;;4.87;;
8803;SDS011;4438;50.890;4.726;2023-03-20T11:17:37;11.27;;;4.40;;
8803;SDS011;4438;50.890;4.726;2023-03-20T11:20:04;7.73;;;3.77;;
8803;SDS011;4438;50.890;4.726;2023-03-20T11:22:30;8.37;;;4.47;;
8803;SDS011;4438;50.890;4.726;2023-03-20T11:24:57;8.43;;;3.90;;
8803;SDS011;4438;50.890;4.726;2023-03-20T11:27:26;7.07;;;3.83;;
8803;SDS011;4438;50.890;4.726;2023-03-20T11:29:53;7.20;;;4.17;;
8803;SDS011;4438;50.890;4.726;2023-03-20T11:34:53;7.63;;;3.90;;
8803;SDS011;4438;50.890;4.726;2023-03-20T11:37:23;5.97;;;3.90;;
8803;SDS011;4438;50.890;4.726;2023-03-20T11:39:55;5.97;;;3.60;;
8803;SDS011;4438;50.890;4.726;2023-03-20T11:42:23;7.00;;;3.83;;
8803;SDS011;4438;50.890;4.726;2023-03-20T11:44:57;9.33;;;3.90;;
8803;SDS011;4438;50.890;4.726;2023-03-20T11:47:24;8.77;;;3.80;;
8803;SDS011;4438;50.890;4.726;2023-03-20T11:49:58;7.97;;;3.60;;
8803;SDS011;4438;50.890;4.726;2023-03-20T11:52:30;9.37;;;3.47;;
8803;SDS011;4438;50.890;4.726;2023-03-20T11:54:57;7.30;;;3.90;;
8803;SDS011;4438;50.890;4.726;2023-03-20T11:57:40;6.70;;;3.67;;
8803;SDS011;4438;50.890;4.726;2023-03-20T12:02:36;6.73;;;3.73;;
8803;SDS011;4438;50.890;4.726;2023-03-20T12:07:43;6.63;;;3.57;;
8803;SDS011;4438;50.890;4.726;2023-03-20T12:10:10;7.90;;;3.50;;
8803;SDS011;4438;50.890;4.726;2023-03-20T12:15:09;9.23;;;4.03;;
8803;SDS011;4438;50.890;4.726;2023-03-20T12:17:46;10.30;;;4.23;;
8803;SDS011;4438;50.890;4.726;2023-03-20T12:22:55;8.17;;;3.40;;
8803;SDS011;4438;50.890;4.726;2023-03-20T12:25:26;7.83;;;4.37;;
8803;SDS011;4438;50.890;4.726;2023-03-20T12:28:01;7.77;;;4.60;;
8803;SDS011;4438;50.890;4.726;2023-03-20T12:33:27;9.93;;;4.20;;
8803;SDS011;4438;50.890;4.726;2023-03-20T12:35:54;5.93;;;4.10;;
8803;SDS011;4438;50.890;4.726;2023-03-20T12:38:27;7.53;;;4.57;;
8803;SDS011;4438;50.890;4.726;2023-03-20T12:40:57;11.50;;;4.27;;
8803;SDS011;4438;50.890;4.726;2023-03-20T12:43:29;6.67;;;4.60;;
8803;SDS011;4438;50.890;4.726;2023-03-20T12:49:34;7.50;;;4.67;;
8803;SDS011;4438;50.890;4.726;2023-03-20T12:51:39;10.53;;;5.00;;
8803;SDS011;4438;50.890;4.726;2023-03-20T13:07:21;8.93;;;3.50;;
8803;SDS011;4438;50.890;4.726;2023-03-20T13:12:31;7.23;;;4.13;;
8803;SDS011;4438;50.890;4.726;2023-03-20T13:17:59;7.47;;;4.30;;
8803;SDS011;4438;50.890;4.726;2023-03-20T13:20:24;8.43;;;3.90;;
8803;SDS011;4438;50.890;4.726;2023-03-20T13:25:46;10.47;;;4.53;;
8803;SDS011;4438;50.890;4.726;2023-03-20T13:30:55;10.50;;;4.70;;
8803;SDS011;4438;50.890;4.726;2023-03-20T13:38:39;9.13;;;4.60;;
8803;SDS011;4438;50.890;4.726;2023-03-20T13:41:07;9.20;;;4.50;;
8803;SDS011;4438;50.890;4.726;2023-03-20T13:46:06;10.10;;;4.63;;
8803;SDS011;4438;50.890;4.726;2023-03-20T13:48:39;9.77;;;4.43;;
8803;SDS011;4438;50.890;4.726;2023-03-20T14:03:32;10.20;;;4.03;;
8803;SDS011;4438;50.890;4.726;2023-03-20T14:06:00;10.10;;;4.40;;
8803;SDS011;4438;50.890;4.726;2023-03-20T14:11:05;9.77;;;4.27;;
8803;SDS011;4438;50.890;4.726;2023-03-20T14:13:32;9.97;;;4.63;;
8803;SDS011;4438;50.890;4.726;2023-03-20T14:16:03;8.50;;;4.60;;
8803;SDS011;4438;50.890;4.726;2023-03-20T14:18:32;11.70;;;5.40;;
8803;SDS011;4438;50.890;4.726;2023-03-20T14:21:02;10.27;;;5.20;;
8803;SDS011;4438;50.890;4.726;2023-03-20T14:23:35;9.60;;;4.83;;
8803;SDS011;4438;50.890;4.726;2023-03-20T14:26:08;10.67;;;5.37;;
8803;SDS011;4438;50.890;4.726;2023-03-20T14:28:45;11.83;;;6.03;;
8803;SDS011;4438;50.890;4.726;2023-03-20T14:31:35;11.03;;;5.23;;
8803;SDS011;4438;50.890;4.726;2023-03-20T14:49:51;11.93;;;6.17;;
8803;SDS011;4438;50.890;4.726;2023-03-20T14:52:28;13.97;;;6.27;;
8803;SDS011;4438;50.890;4.726;2023-03-20T14:55:12;13.47;;;6.73;;
8803;SDS011;4438;50.890;4.726;2023-03-20T14:57:38;14.33;;;6.33;;
8803;SDS011;4438;50.890;4.726;2023-03-20T15:00:05;11.47;;;6.33;;
8803;SDS011;4438;50.890;4.726;2023-03-20T15:02:41;9.57;;;6.33;;
8803;SDS011;4438;50.890;4.726;2023-03-20T15:05:24;9.33;;;6.00;;
8803;SDS011;4438;50.890;4.726;2023-03-20T15:07:53;11.13;;;7.00;;
8803;SDS011;4438;50.890;4.726;2023-03-20T15:10:20;12.53;;;6.67;;
8803;SDS011;4438;50.890;4.726;2023-03-20T15:12:46;10.13;;;6.97;;
8803;SDS011;4438;50.890;4.726;2023-03-20T15:15:26;10.07;;;6.70;;
8803;SDS011;4438;50.890;4.726;2023-03-20T15:17:53;14.33;;;6.97;;
8803;SDS011;4438;50.890;4.726;2023-03-20T15:20:23;12.63;;;6.70;;
8803;SDS011;4438;50.890;4.726;2023-03-20T15:22:53;13.73;;;7.60;;
8803;SDS011;4438;50.890;4.726;2023-03-20T15:25:21;12.70;;;7.73;;
8803;SDS011;4438;50.890;4.726;2023-03-20T15:27:48;16.40;;;8.30;;
8803;SDS011;4438;50.890;4.726;2023-03-20T15:30:17;13.87;;;7.80;;
8803;SDS011;4438;50.890;4.726;2023-03-20T15:32:44;13.20;;;7.97;;
8803;SDS011;4438;50.890;4.726;2023-03-20T15:35:15;11.90;;;7.00;;
8803;SDS011;4438;50.890;4.726;2023-03-20T15:37:45;13.30;;;7.47;;
8803;SDS011;4438;50.890;4.726;2023-03-20T15:40:16;12.57;;;7.67;;
8803;SDS011;4438;50.890;4.726;2023-03-20T15:42:59;11.90;;;7.50;;
8803;SDS011;4438;50.890;4.726;2023-03-20T15:45:27;11.27;;;7.80;;
8803;SDS011;4438;50.890;4.726;2023-03-20T15:48:00;12.20;;;7.87;;
8803;SDS011;4438;50.890;4.726;2023-03-20T15:50:30;12.80;;;8.03;;
8803;SDS011;4438;50.890;4.726;2023-03-20T15:52:56;12.40;;;8.30;;
8803;SDS011;4438;50.890;4.726;2023-03-20T15:55:22;10.43;;;8.33;;
8803;SDS011;4438;50.890;4.726;2023-03-20T15:57:49;12.83;;;8.50;;
8803;SDS011;4438;50.890;4.726;2023-03-20T16:01:01;13.33;;;8.37;;
8803;SDS011;4438;50.890;4.726;2023-03-20T16:03:09;14.07;;;8.43;;
8803;SDS011;4438;50.890;4.726;2023-03-20T16:05:36;14.27;;;8.20;;
8803;SDS011;4438;50.890;4.726;2023-03-20T16:08:21;12.37;;;8.57;;
8803;SDS011;4438;50.890;4.726;2023-03-20T16:10:47;15.00;;;8.70;;
8803;SDS011;4438;50.890;4.726;2023-03-20T16:13:14;11.43;;;8.50;;
8803;SDS011;4438;50.890;4.726;2023-03-20T16:15:43;16.33;;;9.33;;
8803;SDS011;4438;50.890;4.726;2023-03-20T16:18:11;11.83;;;9.07;;
8803;SDS011;4438;50.890;4.726;2023-03-20T16:20:39;13.00;;;8.53;;
8803;SDS011;4438;50.890;4.726;2023-03-20T16:23:07;12.97;;;8.30;;
8803;SDS011;4438;50.890;4.726;2023-03-20T16:25:34;12.37;;;8.63;;
8803;SDS011;4438;50.890;4.726;2023-03-20T16:28:00;11.67;;;8.20;;
8803;SDS011;4438;50.890;4.726;2023-03-20T16:30:31;10.67;;;7.93;;
8803;SDS011;4438;50.890;4.726;2023-03-20T16:33:13;11.70;;;7.83;;
8803;SDS011;4438;50.890;4.726;2023-03-20T16:35:44;13.83;;;8.77;;
8803;SDS011;4438;50.890;4.726;2023-03-20T16:38:22;13.43;;;8.10;;
8803;SDS011;4438;50.890;4.726;2023-03-20T16:40:52;14.37;;;8.93;;
8803;SDS011;4438;50.890;4.726;2023-03-20T16:43:21;13.43;;;8.27;;
8803;SDS011;4438;50.890;4.726;2023-03-20T16:45:55;12.23;;;8.70;;
8803;SDS011;4438;50.890;4.726;2023-03-20T16:50:47;11.60;;;7.67;;
8803;SDS011;4438;50.890;4.726;2023-03-20T16:53:19;12.00;;;7.40;;
8803;SDS011;4438;50.890;4.726;2023-03-20T16:55:46;11.77;;;7.33;;
8803;SDS011;4438;50.890;4.726;2023-03-20T16:58:17;12.43;;;7.73;;
8803;SDS011;4438;50.890;4.726;2023-03-20T17:00:50;10.60;;;7.17;;
8803;SDS011;4438;50.890;4.726;2023-03-20T17:03:18;13.57;;;7.23;;
8803;SDS011;4438;50.890;4.726;2023-03-20T17:08:11;15.50;;;7.27;;
8803;SDS011;4438;50.890;4.726;2023-03-20T17:10:41;15.70;;;7.37;;
8803;SDS011;4438;50.890;4.726;2023-03-20T17:13:07;16.57;;;7.73;;
8803;SDS011;4438;50.890;4.726;2023-03-20T17:15:33;10.30;;;6.73;;
8803;SDS011;4438;50.890;4.726;2023-03-20T17:18:00;12.17;;;7.40;;
8803;SDS011;4438;50.890;4.726;2023-03-20T17:20:28;13.43;;;8.20;;
8803;SDS011;4438;50.890;4.726;2023-03-20T17:22:56;11.70;;;8.00;;
8803;SDS011;4438;50.890;4.726;2023-03-20T17:25:22;10.07;;;7.43;;
8803;SDS011;4438;50.890;4.726;2023-03-20T17:27:48;13.90;;;7.63;;
8803;SDS011;4438;50.890;4.726;2023-03-20T17:30:21;11.10;;;7.60;;
8803;SDS011;4438;50.890;4.726;2023-03-20T17:32:47;11.73;;;7.33;;
8803;SDS011;4438;50.890;4.726;2023-03-20T17:35:13;13.97;;;8.40;;
8803;SDS011;4438;50.890;4.726;2023-03-20T17:37:39;14.40;;;8.23;;
8803;SDS011;4438;50.890;4.726;2023-03-20T17:40:06;11.77;;;7.97;;
8803;SDS011;4438;50.890;4.726;2023-03-20T17:42:33;13.30;;;8.83;;
8803;SDS011;4438;50.890;4.726;2023-03-20T17:45:00;12.57;;;7.90;;
8803;SDS011;4438;50.890;4.726;2023-03-20T17:47:28;12.77;;;8.63;;